sensor_id;sensor_type;location;lat;lon;timestamp;P1;durP1;ratioP1;P2;durP2;ratioP2
34242;SDS011;20504;43.214;27.920;2023-07-20T15:01:23;12.27;;;6.60;;
34242;SDS011;20504;43.214;27.920;2023-07-20T15:03:49;10.52;;;5.70;;
34242;SDS011;20504;43.214;27.920;2023-07-20T15:06:17;8.35;;;6.28;;
34242;SDS011;20504;43.214;27.920;2023-07-20T15:08:43;7.22;;;6.07;;
34242;SDS011;20504;43.214;27.920;2023-07-20T15:11:08;11.35;;;6.32;;
34242;SDS011;20504;43.214;27.920;2023-07-20T15:13:34;12.40;;;6.57;;
34242;SDS011;20504;43.214;27.920;2023-07-20T15:15:59;9.95;;;7.03;;
34242;SDS011;20504;43.214;27.920;2023-07-20T15:18:25;9.77;;;6.97;;
34242;SDS011;20504;43.214;27.920;2023-07-20T15:20:50;10.13;;;6.57;;
34242;SDS011;20504;43.214;27.920;2023-07-20T15:23:18;11.43;;;7.18;;
34242;SDS011;20504;43.214;27.920;2023-07-20T15:25:44;11.13;;;6.97;;
34242;SDS011;20504;43.214;27.920;2023-07-20T15:30:35;11.48;;;7.45;;
34242;SDS011;20504;43.214;27.920;2023-07-20T15:33:01;11.00;;;7.78;;
34242;SDS011;20504;43.214;27.920;2023-07-20T15:35:27;13.77;;;8.75;;
34242;SDS011;20504;43.214;27.920;2023-07-20T15:37:52;16.97;;;9.90;;
34242;SDS011;20504;43.214;27.920;2023-07-20T15:40:18;11.65;;;8.90;;
34242;SDS011;20504;43.214;27.920;2023-07-20T15:42:43;15.25;;;8.40;;
34242;SDS011;20504;43.214;27.920;2023-07-20T15:45:09;10.43;;;8.77;;
34242;SDS011;20504;43.214;27.920;2023-07-20T15:47:35;12.82;;;10.68;;
34242;SDS011;20504;43.214;27.920;2023-07-20T15:50:01;12.55;;;9.05;;
34242;SDS011;20504;43.214;27.920;2023-07-20T15:54:52;12.38;;;10.18;;
34242;SDS011;20504;43.214;27.920;2023-07-20T15:57:18;13.17;;;9.60;;
34242;SDS011;20504;43.214;27.920;2023-07-20T15:59:43;15.50;;;12.10;;
34242;SDS011;20504;43.214;27.920;2023-07-20T16:02:09;14.13;;;12.20;;
34242;SDS011;20504;43.214;27.920;2023-07-20T16:04:34;20.87;;;12.83;;
34242;SDS011;20504;43.214;27.920;2023-07-20T16:07:00;15.67;;;12.40;;
34242;SDS011;20504;43.214;27.920;2023-07-20T16:09:25;16.13;;;14.23;;
34242;SDS011;20504;43.214;27.920;2023-07-20T16:11:51;14.45;;;12.93;;
34242;SDS011;20504;43.214;27.920;2023-07-20T16:14:17;19.73;;;13.48;;
34242;SDS011;20504;43.214;27.920;2023-07-20T16:16:43;14.57;;;11.55;;
34242;SDS011;20504;43.214;27.920;2023-07-20T16:19:08;16.80;;;10.87;;
34242;SDS011;20504;43.214;27.920;2023-07-20T16:21:33;23.30;;;14.53;;
34242;SDS011;20504;43.214;27.920;2023-07-20T16:23:59;22.93;;;13.07;;
34242;SDS011;20504;43.214;27.920;2023-07-20T16:26:25;14.93;;;10.65;;
34242;SDS011;20504;43.214;27.920;2023-07-20T16:28:50;12.77;;;10.60;;
34242;SDS011;20504;43.214;27.920;2023-07-20T16:31:16;11.50;;;9.53;;
34242;SDS011;20504;43.214;27.920;2023-07-20T16:33:42;14.60;;;10.68;;
34242;SDS011;20504;43.214;27.920;2023-07-20T16:36:09;16.75;;;10.55;;
34242;SDS011;20504;43.214;27.920;2023-07-20T16:38:39;14.13;;;10.00;;
34242;SDS011;20504;43.214;27.920;2023-07-20T16:41:08;12.45;;;10.20;;
34242;SDS011;20504;43.214;27.920;2023-07-20T16:43:35;11.95;;;10.63;;
34242;SDS011;20504;43.214;27.920;2023-07-20T16:46:07;13.65;;;10.43;;
34242;SDS011;20504;43.214;27.920;2023-07-20T16:48:33;13.77;;;10.23;;
34242;SDS011;20504;43.214;27.920;2023-07-20T16:51:00;17.23;;;10.15;;
34242;SDS011;20504;43.214;27.920;2023-07-20T16:53:27;12.02;;;10.23;;
34242;SDS011;20504;43.214;27.920;2023-07-20T16:55:53;11.45;;;10.05;;
34242;SDS011;20504;43.214;27.920;2023-07-20T16:58:21;13.98;;;9.60;;
34242;SDS011;20504;43.214;27.920;2023-07-20T17:00:49;19.25;;;10.23;;
34242;SDS011;20504;43.214;27.920;2023-07-20T17:03:14;13.50;;;10.40;;
34242;SDS011;20504;43.214;27.920;2023-07-20T17:08:07;15.82;;;9.65;;
34242;SDS011;20504;43.214;27.920;2023-07-20T17:10:32;17.27;;;10.33;;
34242;SDS011;20504;43.214;27.920;2023-07-20T17:12:58;17.83;;;11.60;;
34242;SDS011;20504;43.214;27.920;2023-07-20T17:15:23;13.80;;;9.87;;
34242;SDS011;20504;43.214;27.920;2023-07-20T17:17:49;14.53;;;10.87;;
34242;SDS011;20504;43.214;27.920;2023-07-20T17:20:20;25.88;;;17.10;;
34242;SDS011;20504;43.214;27.920;2023-07-20T17:22:46;13.50;;;10.63;;
34242;SDS011;20504;43.214;27.920;2023-07-20T17:25:11;19.87;;;10.40;;
34242;SDS011;20504;43.214;27.920;2023-07-20T17:27:38;11.13;;;8.33;;
34242;SDS011;20504;43.214;27.920;2023-07-20T17:30:04;13.57;;;10.27;;
34242;SDS011;20504;43.214;27.920;2023-07-20T17:32:31;13.15;;;8.65;;
34242;SDS011;20504;43.214;27.920;2023-07-20T17:34:56;13.73;;;8.83;;
34242;SDS011;20504;43.214;27.920;2023-07-20T17:37:22;10.73;;;8.10;;
34242;SDS011;20504;43.214;27.920;2023-07-20T17:39:49;12.27;;;8.43;;
34242;SDS011;20504;43.214;27.920;2023-07-20T17:42:15;11.10;;;7.30;;
34242;SDS011;20504;43.214;27.920;2023-07-20T17:44:41;9.68;;;6.80;;
34242;SDS011;20504;43.214;27.920;2023-07-20T17:47:07;11.10;;;7.07;;
34242;SDS011;20504;43.214;27.920;2023-07-20T17:49:32;12.50;;;7.67;;
34242;SDS011;20504;43.214;27.920;2023-07-20T17:51:58;11.77;;;6.90;;
34242;SDS011;20504;43.214;27.920;2023-07-20T17:54:24;9.90;;;7.80;;
34242;SDS011;20504;43.214;27.920;2023-07-20T17:56:49;11.48;;;7.20;;
34242;SDS011;20504;43.214;27.920;2023-07-20T17:59:15;11.13;;;7.10;;
34242;SDS011;20504;43.214;27.920;2023-07-20T18:01:40;8.83;;;6.00;;
34242;SDS011;20504;43.214;27.920;2023-07-20T18:04:06;7.03;;;5.10;;
34242;SDS011;20504;43.214;27.920;2023-07-20T18:06:32;9.35;;;6.30;;
34242;SDS011;20504;43.214;27.920;2023-07-20T18:08:57;10.97;;;6.33;;
34242;SDS011;20504;43.214;27.920;2023-07-20T18:11:23;8.87;;;6.07;;
34242;SDS011;20504;43.214;27.920;2023-07-20T18:13:48;8.17;;;5.77;;
34242;SDS011;20504;43.214;27.920;2023-07-20T18:16:14;9.97;;;6.50;;
34242;SDS011;20504;43.214;27.920;2023-07-20T18:18:39;12.70;;;6.97;;
34242;SDS011;20504;43.214;27.920;2023-07-20T18:21:05;10.87;;;7.03;;
34242;SDS011;20504;43.214;27.920;2023-07-20T18:23:30;10.37;;;6.60;;
34242;SDS011;20504;43.214;27.920;2023-07-20T18:25:55;12.23;;;6.97;;
34242;SDS011;20504;43.214;27.920;2023-07-20T18:28:21;9.23;;;7.10;;
34242;SDS011;20504;43.214;27.920;2023-07-20T18:30:46;11.13;;;7.60;;
34242;SDS011;20504;43.214;27.920;2023-07-20T18:33:12;13.57;;;8.05;;
34242;SDS011;20504;43.214;27.920;2023-07-20T18:35:38;24.50;;;10.00;;
34242;SDS011;20504;43.214;27.920;2023-07-20T18:38:04;31.17;;;12.10;;
34242;SDS011;20504;43.214;27.920;2023-07-20T18:40:30;36.70;;;15.30;;
34242;SDS011;20504;43.214;27.920;2023-07-20T18:42:57;45.42;;;17.85;;
34242;SDS011;20504;43.214;27.920;2023-07-20T18:45:22;41.07;;;16.57;;
34242;SDS011;20504;43.214;27.920;2023-07-20T18:47:48;29.93;;;16.63;;
34242;SDS011;20504;43.214;27.920;2023-07-20T18:50:13;23.13;;;14.70;;
34242;SDS011;20504;43.214;27.920;2023-07-20T18:52:39;22.70;;;14.93;;
34242;SDS011;20504;43.214;27.920;2023-07-20T18:55:05;24.20;;;15.00;;
34242;SDS011;20504;43.214;27.920;2023-07-20T18:57:31;46.17;;;17.77;;
34242;SDS011;20504;43.214;27.920;2023-07-20T18:59:57;24.10;;;17.95;;
34242;SDS011;20504;43.214;27.920;2023-07-20T19:02:23;31.23;;;20.67;;
34242;SDS011;20504;43.214;27.920;2023-07-20T19:04:50;29.45;;;20.83;;
34242;SDS011;20504;43.214;27.920;2023-07-20T19:07:17;25.27;;;17.90;;
34242;SDS011;20504;43.214;27.920;2023-07-20T19:09:45;29.02;;;18.23;;
34242;SDS011;20504;43.214;27.920;2023-07-20T19:12:11;24.20;;;15.50;;
34242;SDS011;20504;43.214;27.920;2023-07-20T19:14:38;22.33;;;15.38;;
34242;SDS011;20504;43.214;27.920;2023-07-20T19:17:04;24.07;;;15.93;;
34242;SDS011;20504;43.214;27.920;2023-07-20T19:19:30;22.20;;;14.77;;
34242;SDS011;20504;43.214;27.920;2023-07-20T19:21:56;21.27;;;14.80;;
34242;SDS011;20504;43.214;27.920;2023-07-20T19:24:22;19.92;;;14.45;;
34242;SDS011;20504;43.214;27.920;2023-07-20T19:26:47;25.50;;;14.80;;
34242;SDS011;20504;43.214;27.920;2023-07-20T19:29:13;18.37;;;15.77;;
34242;SDS011;20504;43.214;27.920;2023-07-20T19:31:38;21.40;;;15.30;;
34242;SDS011;20504;43.214;27.920;2023-07-20T19:34:04;21.60;;;16.30;;
34242;SDS011;20504;43.214;27.920;2023-07-20T19:36:29;22.40;;;17.13;;
34242;SDS011;20504;43.214;27.920;2023-07-20T19:38:55;21.90;;;16.83;;
34242;SDS011;20504;43.214;27.920;2023-07-20T19:41:20;18.70;;;15.90;;
34242;SDS011;20504;43.214;27.920;2023-07-20T19:43:46;20.37;;;15.53;;
34242;SDS011;20504;43.214;27.920;2023-07-20T19:46:12;20.97;;;16.90;;
34242;SDS011;20504;43.214;27.920;2023-07-20T19:48:37;22.27;;;15.10;;
34242;SDS011;20504;43.214;27.920;2023-07-20T19:51:03;23.33;;;15.83;;
34242;SDS011;20504;43.214;27.920;2023-07-20T19:53:30;20.98;;;15.70;;
34242;SDS011;20504;43.214;27.920;2023-07-20T19:55:56;19.87;;;15.07;;
34242;SDS011;20504;43.214;27.920;2023-07-20T19:58:23;20.15;;;15.65;;
34242;SDS011;20504;43.214;27.920;2023-07-20T20:00:49;18.50;;;14.33;;
34242;SDS011;20504;43.214;27.920;2023-07-20T20:03:14;16.33;;;13.40;;
34242;SDS011;20504;43.214;27.920;2023-07-20T20:05:40;16.33;;;10.73;;
34242;SDS011;20504;43.214;27.920;2023-07-20T20:08:06;18.93;;;10.83;;
34242;SDS011;20504;43.214;27.920;2023-07-20T20:10:32;14.35;;;10.82;;
34242;SDS011;20504;43.214;27.920;2023-07-20T20:12:58;16.42;;;10.20;;
34242;SDS011;20504;43.214;27.920;2023-07-20T20:15:24;16.58;;;10.43;;
34242;SDS011;20504;43.214;27.920;2023-07-20T20:17:50;14.63;;;10.60;;
34242;SDS011;20504;43.214;27.920;2023-07-20T20:20:16;13.00;;;10.13;;
34242;SDS011;20504;43.214;27.920;2023-07-20T20:22:41;14.27;;;10.97;;
34242;SDS011;20504;43.214;27.920;2023-07-20T20:25:07;17.87;;;11.77;;
34242;SDS011;20504;43.214;27.920;2023-07-20T20:27:33;13.77;;;11.07;;
34242;SDS011;20504;43.214;27.920;2023-07-20T20:29:58;13.70;;;10.03;;
34242;SDS011;20504;43.214;27.920;2023-07-20T20:34:51;14.00;;;10.05;;
34242;SDS011;20504;43.214;27.920;2023-07-20T20:37:17;15.17;;;9.57;;
34242;SDS011;20504;43.214;27.920;2023-07-20T20:39:42;14.13;;;10.10;;
34242;SDS011;20504;43.214;27.920;2023-07-20T20:42:08;17.13;;;10.47;;
34242;SDS011;20504;43.214;27.920;2023-07-20T20:44:33;13.50;;;10.90;;
34242;SDS011;20504;43.214;27.920;2023-07-20T20:46:59;15.83;;;10.97;;
34242;SDS011;20504;43.214;27.920;2023-07-20T20:49:27;16.80;;;11.45;;
34242;SDS011;20504;43.214;27.920;2023-07-20T20:51:53;19.05;;;12.35;;
34242;SDS011;20504;43.214;27.920;2023-07-20T20:54:19;18.33;;;12.82;;
34242;SDS011;20504;43.214;27.920;2023-07-20T20:56:45;20.57;;;12.80;;
34242;SDS011;20504;43.214;27.920;2023-07-20T20:59:10;14.17;;;12.27;;
34242;SDS011;20504;43.214;27.920;2023-07-20T21:01:36;15.00;;;12.17;;
34242;SDS011;20504;43.214;27.920;2023-07-20T21:04:01;18.63;;;11.67;;
34242;SDS011;20504;43.214;27.920;2023-07-20T21:06:27;14.77;;;11.77;;
34242;SDS011;20504;43.214;27.920;2023-07-20T21:08:52;16.33;;;10.37;;
34242;SDS011;20504;43.214;27.920;2023-07-20T21:11:18;14.57;;;10.00;;
34242;SDS011;20504;43.214;27.920;2023-07-20T21:13:44;13.87;;;10.60;;
34242;SDS011;20504;43.214;27.920;2023-07-20T21:16:09;14.60;;;10.00;;
34242;SDS011;20504;43.214;27.920;2023-07-20T21:18:35;14.60;;;10.50;;
34242;SDS011;20504;43.214;27.920;2023-07-20T21:21:01;14.45;;;9.82;;
34242;SDS011;20504;43.214;27.920;2023-07-20T21:23:26;15.57;;;10.80;;
34242;SDS011;20504;43.214;27.920;2023-07-20T21:25:52;13.73;;;10.90;;
34242;SDS011;20504;43.214;27.920;2023-07-20T21:28:17;17.10;;;11.17;;
34242;SDS011;20504;43.214;27.920;2023-07-20T21:30:44;18.57;;;11.83;;
34242;SDS011;20504;43.214;27.920;2023-07-20T21:33:10;16.33;;;12.23;;
34242;SDS011;20504;43.214;27.920;2023-07-20T21:35:38;15.68;;;11.82;;
34242;SDS011;20504;43.214;27.920;2023-07-20T21:38:04;16.50;;;11.75;;
34242;SDS011;20504;43.214;27.920;2023-07-20T21:40:29;13.33;;;10.60;;
34242;SDS011;20504;43.214;27.920;2023-07-20T21:42:55;16.93;;;10.70;;
34242;SDS011;20504;43.214;27.920;2023-07-20T21:45:22;16.48;;;11.82;;
34242;SDS011;20504;43.214;27.920;2023-07-20T21:47:49;14.05;;;10.65;;
34242;SDS011;20504;43.214;27.920;2023-07-20T21:50:15;17.17;;;10.65;;
34242;SDS011;20504;43.214;27.920;2023-07-20T21:52:40;14.73;;;10.40;;
34242;SDS011;20504;43.214;27.920;2023-07-20T21:55:06;13.13;;;9.93;;
34242;SDS011;20504;43.214;27.920;2023-07-20T21:57:33;11.65;;;9.25;;
34242;SDS011;20504;43.214;27.920;2023-07-20T21:59:58;14.98;;;8.50;;
34242;SDS011;20504;43.214;27.920;2023-07-20T22:02:24;11.37;;;9.23;;
34242;SDS011;20504;43.214;27.920;2023-07-20T22:04:49;16.63;;;10.20;;
34242;SDS011;20504;43.214;27.920;2023-07-20T22:07:15;21.20;;;12.63;;
34242;SDS011;20504;43.214;27.920;2023-07-20T22:09:41;16.70;;;12.60;;
34242;SDS011;20504;43.214;27.920;2023-07-20T22:12:09;18.83;;;12.38;;
34242;SDS011;20504;43.214;27.920;2023-07-20T22:14:36;19.65;;;13.90;;
34242;SDS011;20504;43.214;27.920;2023-07-20T22:17:06;22.00;;;13.65;;
34242;SDS011;20504;43.214;27.920;2023-07-20T22:19:32;18.10;;;13.02;;
34242;SDS011;20504;43.214;27.920;2023-07-20T22:22:01;24.73;;;14.57;;
34242;SDS011;20504;43.214;27.920;2023-07-20T22:24:30;21.38;;;13.07;;
34242;SDS011;20504;43.214;27.920;2023-07-20T22:26:59;18.75;;;12.38;;
34242;SDS011;20504;43.214;27.920;2023-07-20T22:29:25;24.17;;;14.27;;
34242;SDS011;20504;43.214;27.920;2023-07-20T22:31:56;20.98;;;13.55;;
34242;SDS011;20504;43.214;27.920;2023-07-20T22:34:23;18.23;;;12.35;;
34242;SDS011;20504;43.214;27.920;2023-07-20T22:36:48;24.10;;;14.38;;
34242;SDS011;20504;43.214;27.920;2023-07-20T22:39:14;26.45;;;13.68;;
34242;SDS011;20504;43.214;27.920;2023-07-20T22:41:40;19.93;;;14.30;;
34242;SDS011;20504;43.214;27.920;2023-07-20T22:44:06;26.58;;;13.60;;
34242;SDS011;20504;43.214;27.920;2023-07-20T22:46:32;21.63;;;13.90;;
34242;SDS011;20504;43.214;27.920;2023-07-20T22:48:57;15.83;;;11.40;;
34242;SDS011;20504;43.214;27.920;2023-07-20T22:51:23;14.70;;;11.10;;
34242;SDS011;20504;43.214;27.920;2023-07-20T22:53:48;23.03;;;10.17;;
34242;SDS011;20504;43.214;27.920;2023-07-20T22:56:14;11.77;;;9.70;;
34242;SDS011;20504;43.214;27.920;2023-07-20T22:58:40;15.80;;;9.70;;
34242;SDS011;20504;43.214;27.920;2023-07-20T23:01:09;19.70;;;9.80;;
34242;SDS011;20504;43.214;27.920;2023-07-20T23:03:37;15.70;;;9.23;;
34242;SDS011;20504;43.214;27.920;2023-07-20T23:06:03;12.23;;;8.18;;
34242;SDS011;20504;43.214;27.920;2023-07-20T23:08:30;15.88;;;9.63;;
34242;SDS011;20504;43.214;27.920;2023-07-20T23:10:56;16.83;;;9.27;;
34242;SDS011;20504;43.214;27.920;2023-07-20T23:13:22;15.87;;;8.70;;
34242;SDS011;20504;43.214;27.920;2023-07-20T23:15:49;14.23;;;9.32;;
34242;SDS011;20504;43.214;27.920;2023-07-20T23:18:15;17.70;;;9.47;;
34242;SDS011;20504;43.214;27.920;2023-07-20T23:20:40;15.57;;;9.47;;
34242;SDS011;20504;43.214;27.920;2023-07-20T23:23:06;15.67;;;8.83;;
34242;SDS011;20504;43.214;27.920;2023-07-20T23:25:32;16.90;;;9.80;;
34242;SDS011;20504;43.214;27.920;2023-07-20T23:27:58;13.90;;;9.47;;
34242;SDS011;20504;43.214;27.920;2023-07-20T23:30:24;16.75;;;9.38;;
34242;SDS011;20504;43.214;27.920;2023-07-20T23:32:51;14.68;;;9.38;;
34242;SDS011;20504;43.214;27.920;2023-07-20T23:37:44;15.93;;;8.88;;
34242;SDS011;20504;43.214;27.920;2023-07-20T23:40:12;17.85;;;9.40;;
34242;SDS011;20504;43.214;27.920;2023-07-20T23:42:42;14.32;;;7.90;;
34242;SDS011;20504;43.214;27.920;2023-07-20T23:45:09;12.55;;;8.13;;
34242;SDS011;20504;43.214;27.920;2023-07-20T23:50:02;20.77;;;8.50;;
34242;SDS011;20504;43.214;27.920;2023-07-20T23:52:30;12.35;;;8.88;;
34242;SDS011;20504;43.214;27.920;2023-07-20T23:54:59;13.90;;;8.43;;
34242;SDS011;20504;43.214;27.920;2023-07-20T23:57:26;12.35;;;9.02;;
34242;SDS011;20504;43.214;27.920;2023-07-20T23:59:52;17.35;;;10.45;;
